createdAt,value
2018-08-04T00:00:13.067Z,26.24
2018-08-04T00:02:39.064Z,26.23
2018-08-04T00:05:05.114Z,26.23
2018-08-04T00:07:31.112Z,26.23
2018-08-04T00:09:57.121Z,26.23
2018-08-04T00:12:23.135Z,26.23
2018-08-04T00:14:49.148Z,26.23
2018-08-04T00:17:15.153Z,26.22
2018-08-04T00:19:41.162Z,26.23
2018-08-04T00:22:07.174Z,26.22
2018-08-04T00:24:33.186Z,26.23
2018-08-04T00:26:59.204Z,26.22
2018-08-04T00:29:25.218Z,26.22
2018-08-04T00:31:51.223Z,26.22
2018-08-04T00:34:17.239Z,26.22
2018-08-04T00:36:43.245Z,26.22
2018-08-04T00:39:09.244Z,26.22
2018-08-04T00:41:35.294Z,26.22
2018-08-04T00:44:01.302Z,26.22
2018-08-04T00:46:27.306Z,26.22
2018-08-04T00:48:53.331Z,26.22
2018-08-04T00:51:19.333Z,26.22
2018-08-04T00:53:45.345Z,26.22
2018-08-04T00:56:11.354Z,26.21
2018-08-04T00:58:37.365Z,26.22
2018-08-04T01:01:03.370Z,26.22
2018-08-04T01:03:29.382Z,26.21
2018-08-04T01:05:55.391Z,26.21
2018-08-04T01:08:21.402Z,26.21
2018-08-04T01:10:47.410Z,26.21
2018-08-04T01:13:13.423Z,26.22
2018-08-04T01:15:39.437Z,26.22
2018-08-04T01:18:05.440Z,26.22
2018-08-04T01:20:31.441Z,26.21
2018-08-04T01:22:57.469Z,26.22
2018-08-04T01:25:23.464Z,26.21
2018-08-04T01:27:49.471Z,26.21
2018-08-04T01:30:15.518Z,26.21
2018-08-04T01:32:41.521Z,26.21
2018-08-04T01:35:07.528Z,26.21
2018-08-04T01:37:33.533Z,26.21
2018-08-04T01:39:59.583Z,26.21
2018-08-04T01:42:25.593Z,26.20
2018-08-04T01:44:51.592Z,26.21
2018-08-04T01:47:17.606Z,26.21
2018-08-04T01:49:43.613Z,26.20
2018-08-04T01:52:09.618Z,26.20
2018-08-04T01:54:35.628Z,26.20
2018-08-04T01:57:01.643Z,26.21
2018-08-04T01:59:27.711Z,26.21
2018-08-04T02:01:53.675Z,26.21
2018-08-04T02:04:19.684Z,26.20
2018-08-04T02:06:45.700Z,26.20
2018-08-04T02:09:11.708Z,26.20
2018-08-04T02:11:37.721Z,26.22
2018-08-04T02:14:03.728Z,26.21
2018-08-04T02:16:29.729Z,26.21
2018-08-04T02:18:55.743Z,26.21
2018-08-04T02:21:21.752Z,26.21
2018-08-04T02:23:47.752Z,26.21
2018-08-04T02:26:13.761Z,26.22
2018-08-04T02:28:39.771Z,26.22
2018-08-04T02:31:05.773Z,26.23
2018-08-04T02:33:31.781Z,26.22
2018-08-04T02:35:57.789Z,26.23
2018-08-04T02:38:23.793Z,26.23
2018-08-04T02:40:49.809Z,26.22
2018-08-04T02:43:15.817Z,26.22
2018-08-04T02:45:41.832Z,26.21
2018-08-04T02:48:07.840Z,26.21
2018-08-04T02:50:33.851Z,26.21
2018-08-04T02:52:59.858Z,26.21
2018-08-04T02:55:25.863Z,26.20
2018-08-04T02:57:51.876Z,26.21
2018-08-04T03:00:17.926Z,26.20
2018-08-04T03:02:43.925Z,26.21
2018-08-04T03:05:09.936Z,26.20
2018-08-04T03:07:35.962Z,26.20
2018-08-04T03:10:01.962Z,26.20
2018-08-04T03:12:27.971Z,26.20
2018-08-04T03:14:54.026Z,26.20
2018-08-04T03:17:20.018Z,26.20
2018-08-04T03:19:48.654Z,26.20
2018-08-04T03:22:14.676Z,26.20
2018-08-04T03:24:40.700Z,26.20
2018-08-04T03:27:06.715Z,26.20
2018-08-04T03:29:32.733Z,26.20
2018-08-04T03:31:58.753Z,26.20
2018-08-04T03:34:24.767Z,26.21
2018-08-04T03:36:50.784Z,26.20
2018-08-04T03:39:16.789Z,26.19
2018-08-04T03:41:42.797Z,26.20
2018-08-04T03:44:08.800Z,26.20
2018-08-04T03:46:34.814Z,26.20
2018-08-04T03:49:00.818Z,26.19
2018-08-04T03:51:26.840Z,26.19
2018-08-04T03:53:52.841Z,26.19
2018-08-04T03:56:18.853Z,26.19
2018-08-04T03:58:44.861Z,26.19
2018-08-04T04:01:10.865Z,26.18
2018-08-04T04:03:36.876Z,26.18
2018-08-04T04:06:02.877Z,26.18
2018-08-04T04:08:28.899Z,26.19
2018-08-04T04:10:54.898Z,26.19
2018-08-04T04:13:20.913Z,26.19
2018-08-04T04:15:46.962Z,26.19
2018-08-04T04:18:12.977Z,26.18
2018-08-04T04:20:39.008Z,26.18
2018-08-04T04:23:05.050Z,26.18
2018-08-04T04:25:31.063Z,26.19
2018-08-04T04:27:57.069Z,26.19
2018-08-04T04:30:23.076Z,26.18
2018-08-04T04:32:49.080Z,26.19
2018-08-04T04:35:15.091Z,26.18
2018-08-04T04:37:41.103Z,26.18
2018-08-04T04:40:07.130Z,26.18
2018-08-04T04:42:33.132Z,26.18
2018-08-04T04:44:59.176Z,26.18
2018-08-04T04:47:25.187Z,26.18
2018-08-04T04:49:51.203Z,26.18
2018-08-04T04:52:17.210Z,26.17
2018-08-04T04:54:43.212Z,26.18
2018-08-04T04:57:09.225Z,26.18
2018-08-04T04:59:35.228Z,26.18
2018-08-04T05:02:01.308Z,26.19
2018-08-04T05:04:27.245Z,26.20
2018-08-04T05:06:53.260Z,26.21
2018-08-04T05:09:19.266Z,26.21
2018-08-04T05:11:45.274Z,26.22
2018-08-04T05:14:11.286Z,26.23
2018-08-04T05:16:37.293Z,26.23
2018-08-04T05:19:03.297Z,26.23
2018-08-04T05:21:29.339Z,26.22
2018-08-04T05:23:55.322Z,26.24
2018-08-04T05:26:21.339Z,26.23
2018-08-04T05:28:47.355Z,26.24
2018-08-04T05:31:13.372Z,26.23
2018-08-04T05:33:39.383Z,26.24
2018-08-04T05:36:05.388Z,26.25
2018-08-04T05:38:31.401Z,26.27
2018-08-04T05:40:57.423Z,26.26
2018-08-04T05:43:23.504Z,26.26
2018-08-04T05:45:49.449Z,26.26
2018-08-04T05:48:15.513Z,26.26
2018-08-04T05:50:41.614Z,26.27
2018-08-04T05:53:07.623Z,26.27
2018-08-04T05:55:33.634Z,26.26
2018-08-04T05:57:59.693Z,26.26
2018-08-04T06:00:25.684Z,26.26
2018-08-04T06:02:51.662Z,26.26
2018-08-04T06:05:17.707Z,26.27
2018-08-04T06:07:43.692Z,26.27
2018-08-04T06:10:09.709Z,26.27
2018-08-04T06:12:35.755Z,26.27
2018-08-04T06:15:02.410Z,26.27
2018-08-04T06:17:28.472Z,26.29
2018-08-04T06:19:54.544Z,26.28
2018-08-04T06:22:20.558Z,26.28
2018-08-04T06:24:46.561Z,26.28
2018-08-04T06:27:12.579Z,26.33
2018-08-04T06:29:38.589Z,26.42
2018-08-04T06:32:04.604Z,26.39
2018-08-04T06:34:30.653Z,26.37
2018-08-04T06:36:56.658Z,26.37
2018-08-04T06:39:22.670Z,26.37
2018-08-04T06:41:48.691Z,26.35
2018-08-04T06:44:14.703Z,26.34
2018-08-04T06:46:40.714Z,26.35
2018-08-04T06:49:06.725Z,26.36
2018-08-04T06:51:32.766Z,26.35
2018-08-04T06:53:58.770Z,26.34
2018-08-04T06:56:24.782Z,26.30
2018-08-04T06:58:50.812Z,26.28
2018-08-04T07:01:16.822Z,26.32
2018-08-04T07:03:42.941Z,26.31
2018-08-04T07:06:08.984Z,26.30
2018-08-04T07:08:34.991Z,26.31
2018-08-04T07:11:01.033Z,26.31
2018-08-04T07:13:27.046Z,26.32
2018-08-04T07:15:53.057Z,26.30
2018-08-04T07:18:19.056Z,26.29
2018-08-04T07:20:45.119Z,26.28
2018-08-04T07:23:11.239Z,26.28
2018-08-04T07:25:37.300Z,26.29
2018-08-04T07:28:03.313Z,26.29
2018-08-04T07:30:29.322Z,26.29
2018-08-04T07:32:55.335Z,26.29
2018-08-04T07:35:21.350Z,26.29
2018-08-04T07:37:47.353Z,26.31
2018-08-04T07:40:13.365Z,26.32
2018-08-04T07:42:39.382Z,26.31
2018-08-04T07:45:05.390Z,26.31
2018-08-04T07:47:31.441Z,26.31
2018-08-04T07:49:57.431Z,26.32
2018-08-04T07:52:23.435Z,26.32
2018-08-04T07:54:49.436Z,26.32
2018-08-04T07:57:15.442Z,26.29
2018-08-04T07:59:41.456Z,26.29
2018-08-04T08:02:07.472Z,26.30
2018-08-04T08:04:33.489Z,26.29
2018-08-04T08:06:59.497Z,26.30
2018-08-04T08:09:25.501Z,26.31
2018-08-04T08:11:51.509Z,26.30
2018-08-04T08:14:17.519Z,26.31
2018-08-04T08:16:43.536Z,26.32
2018-08-04T08:19:09.546Z,26.31
2018-08-04T08:21:35.559Z,26.31
2018-08-04T08:24:01.613Z,26.31
2018-08-04T08:26:27.612Z,26.30
2018-08-04T08:28:53.624Z,26.29
2018-08-04T08:31:19.707Z,26.30
2018-08-04T08:33:45.644Z,26.31
2018-08-04T08:36:11.649Z,26.32
2018-08-04T08:38:37.655Z,26.32
2018-08-04T08:41:03.691Z,26.32
2018-08-04T08:43:29.696Z,26.33
2018-08-04T08:45:55.709Z,26.30
2018-08-04T08:48:21.714Z,26.32
2018-08-04T08:50:47.723Z,26.33
2018-08-04T08:53:13.792Z,26.34
2018-08-04T08:55:39.733Z,26.35
2018-08-04T08:58:05.746Z,26.34
2018-08-04T09:00:31.761Z,26.36
2018-08-04T09:02:57.770Z,26.37
2018-08-04T09:05:23.820Z,26.37
2018-08-04T09:07:49.834Z,26.38
2018-08-04T09:10:15.838Z,26.39
2018-08-04T09:12:41.863Z,26.39
2018-08-04T09:15:07.877Z,26.39
2018-08-04T09:17:33.888Z,26.40
2018-08-04T09:19:59.898Z,26.40
2018-08-04T09:22:25.910Z,26.42
2018-08-04T09:24:51.916Z,26.42
2018-08-04T09:27:17.926Z,26.41
2018-08-04T09:29:43.938Z,26.43
2018-08-04T09:32:09.949Z,26.42
2018-08-04T09:34:35.961Z,26.42
2018-08-04T09:37:01.972Z,26.43
2018-08-04T09:39:27.982Z,26.42
2018-08-04T09:41:53.984Z,26.42
2018-08-04T09:44:19.988Z,26.42
2018-08-04T09:46:46.000Z,26.42
2018-08-04T09:49:12.007Z,26.42
2018-08-04T09:51:38.029Z,26.40
2018-08-04T09:54:04.047Z,26.40
2018-08-04T09:56:30.057Z,26.39
2018-08-04T09:58:56.066Z,26.40
2018-08-04T10:01:22.114Z,26.40
2018-08-04T10:03:48.099Z,26.42
2018-08-04T10:06:14.113Z,26.44
2018-08-04T10:08:40.127Z,26.44
2018-08-04T10:11:06.186Z,26.44
2018-08-04T10:13:32.174Z,26.43
2018-08-04T10:15:58.179Z,26.43
2018-08-04T10:18:24.191Z,26.43
2018-08-04T10:20:50.206Z,26.44
2018-08-04T10:23:16.208Z,26.44
2018-08-04T10:25:42.229Z,26.44
2018-08-04T10:28:08.297Z,26.45
2018-08-04T10:30:34.309Z,26.45
2018-08-04T10:33:00.320Z,26.45
2018-08-04T10:35:26.332Z,26.44
2018-08-04T10:37:52.343Z,26.44
2018-08-04T10:40:18.367Z,26.43
2018-08-04T10:42:44.406Z,26.44
2018-08-04T10:45:10.425Z,26.43
2018-08-04T10:47:36.459Z,26.43
2018-08-04T10:50:02.432Z,26.43
2018-08-04T10:52:28.439Z,26.44
2018-08-04T10:54:54.455Z,26.45
2018-08-04T10:57:20.500Z,26.46
2018-08-04T10:59:46.502Z,26.47
2018-08-04T11:02:12.537Z,26.47
2018-08-04T11:04:38.579Z,26.49
2018-08-04T11:07:04.586Z,26.51
2018-08-04T11:09:30.605Z,26.53
2018-08-04T11:11:56.622Z,26.55
2018-08-04T11:14:22.637Z,26.57
2018-08-04T11:16:48.644Z,26.55
2018-08-04T11:19:14.655Z,26.53
2018-08-04T11:21:40.656Z,26.54
2018-08-04T11:24:06.725Z,26.53
2018-08-04T11:26:32.669Z,26.52
2018-08-04T11:28:58.678Z,26.51
2018-08-04T11:31:24.697Z,26.50
2018-08-04T11:33:50.698Z,26.54
2018-08-04T11:36:16.704Z,26.56
2018-08-04T11:38:42.722Z,26.57
2018-08-04T11:41:08.737Z,26.59
2018-08-04T11:43:34.837Z,26.60
2018-08-04T11:46:00.811Z,26.60
2018-08-04T11:48:26.820Z,26.60
2018-08-04T11:50:52.847Z,26.60
2018-08-04T11:53:18.845Z,26.60
2018-08-04T11:55:44.848Z,26.58
2018-08-04T11:58:10.862Z,26.58
2018-08-04T12:00:36.871Z,26.58
2018-08-04T12:03:02.878Z,26.58
2018-08-04T12:05:28.935Z,26.60
2018-08-04T12:07:54.897Z,26.56
2018-08-04T12:10:20.904Z,26.55
2018-08-04T12:12:46.969Z,26.56
2018-08-04T12:15:12.978Z,26.55
2018-08-04T12:17:38.990Z,26.54
2018-08-04T12:20:05.059Z,26.54
2018-08-04T12:22:31.027Z,26.55
2018-08-04T12:24:57.030Z,26.54
2018-08-04T12:27:23.036Z,26.54
2018-08-04T12:29:49.044Z,26.54
2018-08-04T12:32:15.054Z,26.53
2018-08-04T12:34:41.068Z,26.53
2018-08-04T12:37:07.083Z,26.52
2018-08-04T12:39:33.093Z,26.53
2018-08-04T12:41:59.112Z,26.53
2018-08-04T12:44:25.122Z,26.50
2018-08-04T12:46:51.130Z,26.50
2018-08-04T12:49:17.205Z,26.52
2018-08-04T12:51:43.217Z,26.51
2018-08-04T12:54:09.270Z,26.53
2018-08-04T12:56:35.292Z,26.53
2018-08-04T12:59:01.316Z,26.53
2018-08-04T13:01:27.324Z,26.52
2018-08-04T13:03:53.368Z,26.51
2018-08-04T13:06:19.373Z,26.51
2018-08-04T13:08:45.420Z,26.52
2018-08-04T13:11:11.420Z,26.53
2018-08-04T13:13:37.430Z,26.53
2018-08-04T13:16:03.477Z,26.53
2018-08-04T13:18:29.485Z,26.53
2018-08-04T13:20:55.490Z,26.54
2018-08-04T13:23:21.508Z,26.53
2018-08-04T13:25:47.517Z,26.53
2018-08-04T13:28:13.532Z,26.55
2018-08-04T13:30:39.540Z,26.56
2018-08-04T13:33:05.575Z,26.55
2018-08-04T13:35:31.562Z,26.57
2018-08-04T13:37:57.569Z,26.58
2018-08-04T13:40:23.576Z,26.58
2018-08-04T13:42:49.653Z,26.59
2018-08-04T13:45:15.634Z,26.58
2018-08-04T13:47:41.636Z,26.57
2018-08-04T13:50:07.689Z,26.55
2018-08-04T13:52:33.688Z,26.55
2018-08-04T13:54:59.705Z,26.56
2018-08-04T13:57:25.718Z,26.59
2018-08-04T13:59:51.849Z,26.60
2018-08-04T14:02:17.859Z,26.61
2018-08-04T14:04:43.992Z,26.62
2018-08-04T14:07:10.005Z,26.66
2018-08-04T14:09:36.024Z,26.66
2018-08-04T14:12:02.049Z,26.67
2018-08-04T14:14:28.052Z,26.66
2018-08-04T14:16:54.098Z,26.66
2018-08-04T14:19:20.105Z,26.66
2018-08-04T14:21:46.128Z,26.69
2018-08-04T14:24:12.132Z,26.69
2018-08-04T14:26:38.144Z,26.70
2018-08-04T14:29:04.146Z,26.70
2018-08-04T14:31:30.157Z,26.70
2018-08-04T14:33:56.176Z,26.69
2018-08-04T14:36:22.192Z,26.68
2018-08-04T14:38:48.202Z,26.65
2018-08-04T14:41:14.243Z,26.63
2018-08-04T14:43:40.263Z,26.63
2018-08-04T14:46:06.267Z,26.64
2018-08-04T14:48:32.285Z,26.65
2018-08-04T14:50:58.308Z,26.64
2018-08-04T14:53:24.315Z,26.65
2018-08-04T14:55:50.323Z,26.65
2018-08-04T14:58:16.344Z,26.67
2018-08-04T15:00:42.383Z,26.70
2018-08-04T15:03:08.401Z,26.68
2018-08-04T15:05:34.408Z,26.67
2018-08-04T15:08:00.533Z,26.70
2018-08-04T15:10:26.562Z,26.71
2018-08-04T15:12:52.588Z,26.72
2018-08-04T15:15:18.641Z,26.74
2018-08-04T15:17:44.648Z,26.74
2018-08-04T15:20:10.657Z,26.73
2018-08-04T15:22:37.103Z,26.71
2018-08-04T15:25:03.321Z,26.68
2018-08-04T15:27:29.430Z,26.65
2018-08-04T15:29:55.571Z,26.70
2018-08-04T15:32:21.581Z,26.72
2018-08-04T15:34:47.594Z,26.71
2018-08-04T15:37:13.850Z,26.70
2018-08-04T15:39:39.946Z,26.69
2018-08-04T15:42:05.954Z,26.71
2018-08-04T15:44:31.972Z,26.71
2018-08-04T15:46:58.016Z,26.72
2018-08-04T15:49:24.019Z,26.69
2018-08-04T15:51:50.038Z,26.67
2018-08-04T15:54:16.049Z,26.67
2018-08-04T15:56:42.107Z,26.69
2018-08-04T15:59:08.077Z,26.70
2018-08-04T16:01:34.085Z,26.71
2018-08-04T16:04:00.096Z,26.72
2018-08-04T16:06:26.102Z,26.72
2018-08-04T16:08:52.122Z,26.71
2018-08-04T16:11:18.133Z,26.71
2018-08-04T16:13:44.136Z,26.73
2018-08-04T16:16:10.148Z,26.73
2018-08-04T16:18:36.166Z,26.73
2018-08-04T16:21:02.179Z,26.73
2018-08-04T16:23:28.195Z,26.75
2018-08-04T16:25:54.212Z,26.76
2018-08-04T16:28:20.238Z,26.77
2018-08-04T16:30:46.255Z,26.77
2018-08-04T16:33:12.272Z,26.73
2018-08-04T16:35:38.291Z,26.73
2018-08-04T16:38:04.340Z,26.73
2018-08-04T16:40:30.317Z,26.75
2018-08-04T16:42:56.376Z,26.75
2018-08-04T16:45:22.352Z,26.76
2018-08-04T16:47:48.366Z,26.74
2018-08-04T16:50:14.372Z,26.73
2018-08-04T16:52:40.379Z,26.74
2018-08-04T16:55:06.390Z,26.75
2018-08-04T16:57:32.394Z,26.74
2018-08-04T16:59:58.408Z,26.74
2018-08-04T17:02:24.454Z,26.74
2018-08-04T17:04:50.433Z,26.74
2018-08-04T17:07:16.590Z,26.74
2018-08-04T17:09:42.605Z,26.73
2018-08-04T17:12:08.625Z,26.72
2018-08-04T17:14:34.633Z,26.73
2018-08-04T17:17:00.642Z,26.73
2018-08-04T17:19:26.659Z,26.72
2018-08-04T17:21:52.693Z,26.72
2018-08-04T17:24:18.676Z,26.72
2018-08-04T17:26:44.720Z,26.72
2018-08-04T17:29:10.726Z,26.72
2018-08-04T17:31:36.728Z,26.73
2018-08-04T17:34:02.737Z,26.75
2018-08-04T17:36:28.806Z,26.73
2018-08-04T17:38:54.808Z,26.74
2018-08-04T17:41:20.813Z,26.76
2018-08-04T17:43:46.827Z,26.74
2018-08-04T17:46:12.841Z,26.73
2018-08-04T17:48:38.853Z,26.73
2018-08-04T17:51:04.857Z,26.73
2018-08-04T17:53:30.865Z,26.72
2018-08-04T17:55:56.877Z,26.72
2018-08-04T17:58:22.880Z,26.71
2018-08-04T18:00:48.941Z,26.69
2018-08-04T18:03:14.945Z,26.67
2018-08-04T18:05:40.958Z,26.67
2018-08-04T18:08:06.969Z,26.66
2018-08-04T18:10:32.988Z,26.65
2018-08-04T18:12:59.004Z,26.64
2018-08-04T18:15:25.015Z,26.62
2018-08-04T18:17:51.030Z,26.61
2018-08-04T18:20:17.041Z,26.60
2018-08-04T18:22:43.056Z,26.61
2018-08-04T18:25:09.089Z,26.59
2018-08-04T18:27:35.094Z,26.58
2018-08-04T18:30:01.145Z,26.58
2018-08-04T18:32:27.191Z,26.59
2018-08-04T18:34:53.198Z,26.59
2018-08-04T18:37:19.253Z,26.58
2018-08-04T18:39:45.228Z,26.57
2018-08-04T18:42:11.242Z,26.58
2018-08-04T18:44:37.305Z,26.57
2018-08-04T18:47:03.274Z,26.56
2018-08-04T18:49:29.283Z,26.54
2018-08-04T18:51:55.318Z,26.54
2018-08-04T18:54:21.308Z,26.54
2018-08-04T18:56:47.314Z,26.54
2018-08-04T18:59:13.357Z,26.53
2018-08-04T19:01:39.371Z,26.53
2018-08-04T19:04:05.381Z,26.54
2018-08-04T19:06:31.393Z,26.55
2018-08-04T19:08:57.407Z,26.55
2018-08-04T19:11:23.408Z,26.55
2018-08-04T19:13:49.430Z,26.58
2018-08-04T19:16:15.560Z,26.59
2018-08-04T19:18:41.497Z,26.57
2018-08-04T19:21:07.509Z,26.56
2018-08-04T19:23:33.555Z,26.57
2018-08-04T19:25:59.556Z,26.57
2018-08-04T19:28:25.636Z,26.57
2018-08-04T19:30:51.598Z,26.57
2018-08-04T19:33:17.590Z,26.57
2018-08-04T19:35:43.602Z,26.58
2018-08-04T19:38:09.621Z,26.56
2018-08-04T19:40:35.629Z,26.57
2018-08-04T19:43:01.644Z,26.56
2018-08-04T19:45:27.722Z,26.57
2018-08-04T19:47:53.734Z,26.56
2018-08-04T19:50:19.739Z,26.56
2018-08-04T19:52:45.763Z,26.57
2018-08-04T19:55:11.770Z,26.56
2018-08-04T19:57:37.796Z,26.56
2018-08-04T20:00:03.801Z,26.56
2018-08-04T20:02:29.820Z,26.57
2018-08-04T20:04:55.829Z,26.60
2018-08-04T20:07:21.872Z,26.59
2018-08-04T20:09:47.888Z,26.60
2018-08-04T20:12:13.921Z,26.60
2018-08-04T20:14:39.954Z,26.59
2018-08-04T20:17:05.943Z,26.57
2018-08-04T20:19:32.996Z,26.56
2018-08-04T20:21:59.337Z,26.57
2018-08-04T20:24:25.367Z,26.57
2018-08-04T20:26:52.695Z,26.57
2018-08-04T20:29:19.370Z,26.57
2018-08-04T20:31:45.386Z,26.58
2018-08-04T20:34:11.401Z,26.59
2018-08-04T20:36:37.408Z,26.58
2018-08-04T20:39:03.476Z,26.58
2018-08-04T20:41:29.496Z,26.59
2018-08-04T20:43:55.513Z,26.58
2018-08-04T20:46:21.546Z,26.59
2018-08-04T20:48:47.585Z,26.59
2018-08-04T20:51:13.596Z,26.59
2018-08-04T20:53:39.648Z,26.59
2018-08-04T20:56:05.662Z,26.60
2018-08-04T20:58:31.677Z,26.60
2018-08-04T21:00:57.687Z,26.59
2018-08-04T21:03:23.708Z,26.59
2018-08-04T21:05:49.728Z,26.59
2018-08-04T21:08:15.736Z,26.59
2018-08-04T21:10:41.759Z,26.60
2018-08-04T21:13:07.758Z,26.60
2018-08-04T21:15:33.770Z,26.60
2018-08-04T21:17:59.785Z,26.61
2018-08-04T21:20:25.837Z,26.61
2018-08-04T21:22:51.836Z,26.61
2018-08-04T21:25:17.844Z,26.60
2018-08-04T21:27:43.851Z,26.60
2018-08-04T21:30:09.893Z,26.60
2018-08-04T21:32:35.899Z,26.59
2018-08-04T21:35:01.910Z,26.58
2018-08-04T21:37:27.916Z,26.57
2018-08-04T21:39:53.925Z,26.56
2018-08-04T21:42:19.933Z,26.56
2018-08-04T21:44:45.936Z,26.56
2018-08-04T21:47:11.946Z,26.55
2018-08-04T21:49:37.951Z,26.54
2018-08-04T21:52:03.965Z,26.54
2018-08-04T21:54:29.999Z,26.54
2018-08-04T21:56:56.029Z,26.54
2018-08-04T21:59:22.032Z,26.53
2018-08-04T22:01:48.155Z,26.53
2018-08-04T22:04:14.151Z,26.52
2018-08-04T22:06:40.162Z,26.52
2018-08-04T22:09:06.165Z,26.52
2018-08-04T22:11:32.172Z,26.52
2018-08-04T22:13:58.181Z,26.52
2018-08-04T22:16:24.184Z,26.52
2018-08-04T22:18:50.185Z,26.52
2018-08-04T22:21:16.198Z,26.54
2018-08-04T22:23:42.211Z,26.52
2018-08-04T22:26:08.220Z,26.51
2018-08-04T22:28:34.231Z,26.51
2018-08-04T22:31:00.228Z,26.50
2018-08-04T22:33:26.260Z,26.50
2018-08-04T22:35:52.252Z,26.50
2018-08-04T22:38:18.269Z,26.50
2018-08-04T22:40:44.274Z,26.49
2018-08-04T22:43:10.290Z,26.49
2018-08-04T22:45:36.301Z,26.49
2018-08-04T22:48:02.309Z,26.49
2018-08-04T22:50:28.319Z,26.48
2018-08-04T22:52:54.337Z,26.48
2018-08-04T22:55:20.356Z,26.48
2018-08-04T22:57:46.367Z,26.48
2018-08-04T23:00:12.387Z,26.48
2018-08-04T23:02:38.400Z,26.48
2018-08-04T23:05:04.406Z,26.47
2018-08-04T23:07:30.419Z,26.47
2018-08-04T23:09:56.433Z,26.47
2018-08-04T23:12:22.443Z,26.46
2018-08-04T23:14:48.452Z,26.46
2018-08-04T23:17:14.474Z,26.47
2018-08-04T23:19:40.492Z,26.46
2018-08-04T23:22:06.496Z,26.46
2018-08-04T23:24:32.509Z,26.46
2018-08-04T23:26:58.517Z,26.45
2018-08-04T23:29:24.530Z,26.45
2018-08-04T23:31:50.533Z,26.45
2018-08-04T23:34:16.540Z,26.45
2018-08-04T23:36:42.549Z,26.45
2018-08-04T23:39:08.563Z,26.44
2018-08-04T23:41:34.565Z,26.44
2018-08-04T23:44:00.572Z,26.44
2018-08-04T23:46:26.578Z,26.44
2018-08-04T23:48:52.592Z,26.44
2018-08-04T23:51:18.598Z,26.43
2018-08-04T23:53:44.605Z,26.43
2018-08-04T23:56:10.619Z,26.43
2018-08-04T23:58:36.623Z,26.43
